Wetterdaten: Woche 21.02.05 - 27.02.05 (KW8)
Datum Zeit Temperatur Luftfeuchte Luftdruck Niederschlag Windrichtung Taupunkt Windchill Wind
21.02.2005 00:00 -5,1 C 92 % 1006 hPa 0,0 l/m N -6,2 C -5,1 C 0,0 km/h (0 Bft)
21.02.2005 01:00 -4,7 C 93 % 1006 hPa 0,0 l/m N -5,7 C -4,7 C 0,0 km/h (0 Bft)
21.02.2005 02:00 -4,5 C 93 % 1006 hPa 0,0 l/m N -5,4 C -4,5 C 0,0 km/h (0 Bft)
21.02.2005 03:00 -4,2 C 95 % 1006 hPa 0,0 l/m N-NW -5,0 C -4,6 C 4,3 km/h (1 Bft)
21.02.2005 04:00 -4,3 C 96 % 1006 hPa 0,0 l/m N -4,9 C -5,0 C 4,3 km/h (1 Bft)
21.02.2005 05:00 -4,3 C 97 % 1005 hPa 0,0 l/m N-NW -4,7 C -4,5 C 4,0 km/h (1 Bft)
21.02.2005 06:00 -4,5 C 97 % 1005 hPa 0,0 l/m N-NW -4,9 C -4,6 C 1,6 km/h (1 Bft)
21.02.2005 07:00 -4,3 C 98 % 1005 hPa 0,0 l/m N -4,6 C -5,8 C 7,7 km/h (2 Bft)
21.02.2005 08:00 -3,8 C 99 % 1005 hPa 0,0 l/m N -4,0 C -7,1 C 10,4 km/h (2 Bft)
21.02.2005 09:00 -3,1 C 98 % 1005 hPa 0,0 l/m N -3,4 C -6,5 C 10,6 km/h (2 Bft)
21.02.2005 10:00 -2,4 C 92 % 1005 hPa 0,0 l/m N -3,6 C -5,7 C 10,7 km/h (2 Bft)
21.02.2005 11:00 -1,7 C 84 % 1005 hPa 0,0 l/m N -4,0 C -6,8 C 13,0 km/h (3 Bft)
21.02.2005 12:00 -1,3 C 82 % 1005 hPa 0,0 l/m N -3,9 C -6,9 C 14,7 km/h (3 Bft)
21.02.2005 13:00 -0,7 C 78 % 1004 hPa 0,0 l/m N -4,0 C -7,2 C 15,9 km/h (3 Bft)
21.02.2005 14:00 -0,9 C 78 % 1004 hPa 0,0 l/m N-NO -4,2 C -6,8 C 14,9 km/h (3 Bft)
21.02.2005 15:00 -1,2 C 80 % 1003 hPa 0,0 l/m N -4,2 C -7,3 C 15,3 km/h (3 Bft)
21.02.2005 16:00 -1,7 C 87 % 1003 hPa 0,0 l/m N -3,6 C -7,6 C 14,8 km/h (3 Bft)
21.02.2005 17:00 -2,1 C 91 % 1003 hPa 0,0 l/m N -3,4 C -6,7 C 12,5 km/h (3 Bft)
21.02.2005 18:00 -2,4 C 91 % 1003 hPa 0,0 l/m N -3,7 C -6,7 C 11,8 km/h (2 Bft)
21.02.2005 19:00 -2,7 C 92 % 1003 hPa 0,0 l/m N -3,8 C -6,3 C 10,7 km/h (2 Bft)
21.02.2005 20:00 -2,8 C 91 % 1003 hPa 0,0 l/m N-NO -4,0 C -4,9 C 9,1 km/h (2 Bft)
21.02.2005 21:00 -3,2 C 91 % 1004 hPa 0,0 l/m N -4,5 C -5,9 C 10,1 km/h (2 Bft)
21.02.2005 22:00 -3,6 C 91 % 1004 hPa 0,0 l/m N-NW -4,8 C -4,2 C 5,3 km/h (1 Bft)
21.02.2005 23:00 -3,8 C 92 % 1003 hPa 0,0 l/m N -4,9 C -5,6 C 8,2 km/h (2 Bft)
22.02.2005 00:00 -3,6 C 94 % 1004 hPa 0,0 l/m O-NO -4,4 C -5,4 C 8,8 km/h (2 Bft)
22.02.2005 01:00 -3,6 C 93 % 1004 hPa 0,0 l/m N-NO -4,6 C -6,1 C 9,3 km/h (2 Bft)
22.02.2005 02:00 -3,8 C 92 % 1003 hPa 0,0 l/m N-NO -4,9 C -4,0 C 3,0 km/h (1 Bft)
22.02.2005 03:00 -4,5 C 92 % 1003 hPa 0,0 l/m N-NW -5,6 C -4,5 C 1,5 km/h (1 Bft)
22.02.2005 04:00 -4,2 C 93 % 1003 hPa 0,0 l/m N-NW -5,2 C -4,3 C 0,1 km/h (0 Bft)
22.02.2005 05:00 -4,0 C 94 % 1003 hPa 0,0 l/m N-NO -4,8 C -4,7 C 5,1 km/h (1 Bft)
22.02.2005 06:00 -3,8 C 96 % 1003 hPa 0,0 l/m N -4,4 C -4,1 C 4,0 km/h (1 Bft)
22.02.2005 07:00 -3,9 C 96 % 1003 hPa 0,0 l/m NW -4,5 C -4,1 C 1,9 km/h (1 Bft)
22.02.2005 08:00 -3,7 C 96 % 1003 hPa 0,0 l/m N-NW -4,2 C -3,7 C 1,3 km/h (1 Bft)
22.02.2005 09:00 -2,9 C 94 % 1003 hPa 0,0 l/m N -3,8 C -3,3 C 3,9 km/h (1 Bft)
22.02.2005 10:00 -2,1 C 88 % 1003 hPa 0,0 l/m N-NO -3,8 C -2,3 C 2,8 km/h (1 Bft)
22.02.2005 11:00 -1,6 C 84 % 1003 hPa 0,0 l/m N -3,9 C -2,6 C 7,4 km/h (2 Bft)
22.02.2005 12:00 -0,9 C 78 % 1003 hPa 0,0 l/m N -4,3 C -3,0 C 9,2 km/h (2 Bft)
22.02.2005 13:00 -0,6 C 76 % 1003 hPa 0,0 l/m N -4,3 C -2,2 C 7,9 km/h (2 Bft)
22.02.2005 14:00 -0,7 C 75 % 1003 hPa 0,0 l/m N -4,5 C -2,6 C 7,9 km/h (2 Bft)
22.02.2005 15:00 -0,9 C 74 % 1003 hPa 0,0 l/m N -4,9 C -2,1 C 7,0 km/h (2 Bft)
22.02.2005 16:00 -1,7 C 78 % 1003 hPa 0,0 l/m NW -5,0 C -2,7 C 4,9 km/h (1 Bft)
22.02.2005 17:00 -2,7 C 83 % 1003 hPa 0,0 l/m N-NW -5,2 C -5,8 C 10,1 km/h (2 Bft)
22.02.2005 18:00 -3,5 C 87 % 1004 hPa 0,0 l/m N -5,4 C -5,3 C 8,2 km/h (2 Bft)
22.02.2005 19:00 -4,0 C 89 % 1004 hPa 0,0 l/m W-NW -5,6 C -4,1 C 3,2 km/h (1 Bft)
22.02.2005 20:00 -4,2 C 90 % 1004 hPa 0,0 l/m N -5,7 C -4,2 C 0,0 km/h (0 Bft)
22.02.2005 21:00 -4,6 C 89 % 1005 hPa 0,0 l/m N -6,0 C -4,6 C 0,0 km/h (0 Bft)
22.02.2005 22:00 -5,0 C 89 % 1005 hPa 0,0 l/m N -6,5 C -5,0 C 0,0 km/h (0 Bft)
22.02.2005 23:00 -5,4 C 90 % 1005 hPa 0,0 l/m N -6,8 C -5,4 C 0,0 km/h (0 Bft)
23.02.2005 00:00 -5,7 C 90 % 1005 hPa 0,0 l/m N -7,0 C -5,7 C 0,0 km/h (0 Bft)
23.02.2005 01:00 -6,0 C 91 % 1005 hPa 0,0 l/m N -7,2 C -6,0 C 0,0 km/h (0 Bft)
23.02.2005 02:00 -6,3 C 91 % 1005 hPa 0,0 l/m N -7,5 C -6,3 C 0,0 km/h (0 Bft)
23.02.2005 03:00 -6,5 C 91 % 1005 hPa 0,0 l/m N -7,7 C -6,5 C 0,0 km/h (0 Bft)
23.02.2005 04:00 -6,7 C 92 % 1005 hPa 0,0 l/m N -7,8 C -6,7 C 0,0 km/h (0 Bft)
23.02.2005 05:00 -6,7 C 92 % 1005 hPa 0,0 l/m N -7,8 C -6,7 C 0,1 km/h (0 Bft)
23.02.2005 06:00 -6,7 C 93 % 1006 hPa 0,0 l/m N -7,7 C -6,7 C 0,0 km/h (0 Bft)
23.02.2005 07:00 -6,4 C 93 % 1006 hPa 0,0 l/m N -7,3 C -6,4 C 0,0 km/h (0 Bft)
23.02.2005 08:00 -5,6 C 93 % 1006 hPa 0,0 l/m S -6,5 C -5,6 C 0,7 km/h (0 Bft)
23.02.2005 09:00 -4,6 C 92 % 1007 hPa 0,0 l/m S -5,8 C -4,7 C 1,9 km/h (1 Bft)
23.02.2005 10:00 -3,6 C 80 % 1007 hPa 0,0 l/m S -6,4 C -4,9 C 7,5 km/h (2 Bft)
23.02.2005 11:00 -2,0 C 70 % 1007 hPa 0,0 l/m S -6,7 C -6,1 C 11,9 km/h (2 Bft)
23.02.2005 12:00 -0,9 C 61 % 1008 hPa 0,0 l/m S -7,6 C -6,1 C 13,2 km/h (3 Bft)
23.02.2005 13:00 -0,3 C 58 % 1007 hPa 0,0 l/m S -7,6 C -2,3 C 8,7 km/h (2 Bft)
23.02.2005 14:00 -0,2 C 55 % 1008 hPa 0,0 l/m S -8,1 C -4,4 C 13,2 km/h (3 Bft)
23.02.2005 15:00 -0,9 C 57 % 1008 hPa 0,0 l/m S-SW -8,3 C -3,5 C 8,8 km/h (2 Bft)
23.02.2005 16:00 -2,0 C 66 % 1008 hPa 0,0 l/m S -7,4 C -4,1 C 7,1 km/h (2 Bft)
23.02.2005 17:00 -2,7 C 73 % 1009 hPa 0,0 l/m W -7,0 C -2,8 C 2,1 km/h (1 Bft)
23.02.2005 18:00 -3,4 C 75 % 1009 hPa 0,0 l/m N -7,2 C -3,4 C 0,0 km/h (0 Bft)
23.02.2005 19:00 -4,3 C 78 % 1009 hPa 0,0 l/m N -7,6 C -4,3 C 0,0 km/h (0 Bft)
23.02.2005 20:00 -4,7 C 81 % 1010 hPa 0,0 l/m N -7,5 C -4,7 C 0,0 km/h (0 Bft)
23.02.2005 21:00 -5,8 C 82 % 1010 hPa 0,0 l/m N -8,3 C -5,8 C 0,0 km/h (0 Bft)
23.02.2005 22:00 -6,6 C 83 % 1010 hPa 0,0 l/m N -9,0 C -6,6 C 0,0 km/h (0 Bft)
23.02.2005 23:00 -7,7 C 84 % 1010 hPa 0,0 l/m N -9,9 C -7,7 C 0,0 km/h (0 Bft)
24.02.2005 00:00 -8,4 C 85 % 1011 hPa 0,0 l/m N -10,5 C -8,4 C 0,0 km/h (0 Bft)
24.02.2005 01:00 -8,9 C 85 % 1011 hPa 0,0 l/m N -10,8 C -8,9 C 0,0 km/h (0 Bft)
24.02.2005 02:00 -9,4 C 86 % 1011 hPa 0,0 l/m N -11,3 C -9,4 C 0,0 km/h (0 Bft)
24.02.2005 03:00 -10,4 C 86 % 1011 hPa 0,0 l/m N -12,2 C -10,4 C 0,0 km/h (0 Bft)
24.02.2005 04:00 -10,8 C 86 % 1011 hPa 0,0 l/m N -12,7 C -10,8 C 0,0 km/h (0 Bft)
24.02.2005 05:00 -11,4 C 86 % 1011 hPa 0,0 l/m N -13,3 C -11,4 C 0,0 km/h (0 Bft)
24.02.2005 06:00 -11,5 C 86 % 1011 hPa 0,0 l/m NW -13,4 C -12,5 C 6,5 km/h (2 Bft)
24.02.2005 07:00 -11,0 C 86 % 1011 hPa 0,0 l/m N-NW -12,9 C -11,5 C 4,0 km/h (1 Bft)
24.02.2005 08:00 -9,8 C 91 % 1012 hPa 0,0 l/m N-NW -10,9 C -9,9 C 1,9 km/h (1 Bft)
24.02.2005 09:00 -8,3 C 96 % 1012 hPa 0,0 l/m N-NW -8,9 C -8,6 C 3,5 km/h (1 Bft)
24.02.2005 10:00 -7,5 C 97 % 1012 hPa 0,0 l/m W-NW -7,9 C -7,5 C 1,5 km/h (1 Bft)
24.02.2005 11:00 -6,1 C 97 % 1012 hPa 0,0 l/m NW -6,5 C -6,5 C 5,5 km/h (1 Bft)
24.02.2005 12:00 -4,6 C 93 % 1012 hPa 0,0 l/m W-NW -5,5 C -5,7 C 8,2 km/h (2 Bft)
24.02.2005 13:00 -2,3 C 78 % 1011 hPa 0,0 l/m NW -5,7 C -4,7 C 9,6 km/h (2 Bft)
24.02.2005 14:00 -0,6 C 61 % 1011 hPa 0,0 l/m N-NO -7,1 C -4,8 C 12,9 km/h (3 Bft)
24.02.2005 15:00 -1,2 C 63 % 1011 hPa 0,0 l/m N-NO -7,4 C -6,6 C 13,7 km/h (3 Bft)
24.02.2005 16:00 -2,0 C 69 % 1011 hPa 0,0 l/m N-NO -7,0 C -6,2 C 11,9 km/h (2 Bft)
24.02.2005 17:00 -3,1 C 72 % 1011 hPa 0,0 l/m N-NW -7,4 C -5,8 C 9,7 km/h (2 Bft)
24.02.2005 18:00 -4,8 C 77 % 1012 hPa 0,0 l/m N-NW -8,3 C -6,1 C 6,6 km/h (2 Bft)
24.02.2005 19:00 -6,1 C 80 % 1012 hPa 0,0 l/m W-NW -9,0 C -6,2 C 1,9 km/h (1 Bft)
24.02.2005 20:00 -6,9 C 81 % 1012 hPa 0,0 l/m W -9,5 C -7,0 C 3,2 km/h (1 Bft)
24.02.2005 21:00 -7,5 C 83 % 1012 hPa 0,0 l/m W-NW -9,9 C -7,6 C 4,2 km/h (1 Bft)
24.02.2005 22:00 -6,9 C 85 % 1013 hPa 0,0 l/m NW -9,0 C -7,8 C 6,6 km/h (2 Bft)
24.02.2005 23:00 -6,5 C 87 % 1013 hPa 0,0 l/m W-NW -8,3 C -7,5 C 7,3 km/h (2 Bft)
25.02.2005 00:00 -6,3 C 87 % 1013 hPa 0,0 l/m NW -8,1 C -7,0 C 4,7 km/h (1 Bft)
25.02.2005 01:00 -6,1 C 88 % 1013 hPa 0,0 l/m NW -7,8 C -6,6 C 2,0 km/h (1 Bft)
25.02.2005 02:00 -6,0 C 88 % 1013 hPa 0,0 l/m W-NW -7,7 C -6,0 C 1,4 km/h (1 Bft)
25.02.2005 03:00 -5,8 C 88 % 1013 hPa 0,0 l/m N -7,5 C -5,8 C 0,0 km/h (0 Bft)
25.02.2005 04:00 -5,7 C 88 % 1013 hPa 0,0 l/m N -7,3 C -5,7 C 0,0 km/h (0 Bft)
25.02.2005 05:00 -5,6 C 88 % 1013 hPa 0,0 l/m N -7,3 C -5,6 C 0,0 km/h (0 Bft)
25.02.2005 06:00 -5,6 C 88 % 1013 hPa 0,0 l/m W -7,3 C -5,6 C 0,4 km/h (0 Bft)
25.02.2005 07:00 -5,5 C 89 % 1013 hPa 0,0 l/m NW -7,0 C -6,1 C 3,7 km/h (1 Bft)
25.02.2005 08:00 -5,2 C 89 % 1013 hPa 0,0 l/m N-NW -6,8 C -5,2 C 0,4 km/h (0 Bft)
25.02.2005 09:00 -4,5 C 86 % 1013 hPa 0,0 l/m N -6,6 C -5,9 C 5,0 km/h (1 Bft)
25.02.2005 10:00 -3,5 C 81 % 1013 hPa 0,0 l/m N-NO -6,4 C -5,5 C 9,1 km/h (2 Bft)
25.02.2005 11:00 -1,7 C 70 % 1013 hPa 0,0 l/m N-NO -6,5 C -4,0 C 9,2 km/h (2 Bft)
25.02.2005 12:00 -0,9 C 62 % 1013 hPa 0,0 l/m N-NO -7,3 C -5,4 C 12,9 km/h (3 Bft)
25.02.2005 13:00 -0,9 C 60 % 1013 hPa 0,0 l/m N-NO -7,6 C -5,1 C 12,0 km/h (2 Bft)
25.02.2005 14:00 -0,7 C 61 % 1013 hPa 0,0 l/m N-NO -7,3 C -4,8 C 12,1 km/h (2 Bft)
25.02.2005 15:00 -0,7 C 62 % 1012 hPa 0,0 l/m N-NO -7,1 C -3,3 C 9,4 km/h (2 Bft)
25.02.2005 16:00 -1,0 C 63 % 1013 hPa 0,0 l/m N -7,0 C -3,3 C 9,9 km/h (2 Bft)
25.02.2005 17:00 -1,6 C 66 % 1013 hPa 0,0 l/m N -7,0 C -4,3 C 10,1 km/h (2 Bft)
25.02.2005 18:00 -2,2 C 69 % 1013 hPa 0,0 l/m N -7,1 C -3,6 C 7,8 km/h (2 Bft)
25.02.2005 19:00 -2,6 C 71 % 1014 hPa 0,0 l/m N-NO -7,1 C -4,3 C 8,9 km/h (2 Bft)
25.02.2005 20:00 -3,0 C 73 % 1014 hPa 0,0 l/m N-NO -7,0 C -3,8 C 5,2 km/h (1 Bft)
25.02.2005 21:00 -3,6 C 76 % 1014 hPa 0,0 l/m N-NO -7,1 C -4,2 C 6,2 km/h (2 Bft)
25.02.2005 22:00 -4,3 C 78 % 1014 hPa 0,0 l/m W-NW -7,6 C -4,5 C 2,3 km/h (1 Bft)
25.02.2005 23:00 -5,1 C 80 % 1014 hPa 0,0 l/m NW -8,0 C -5,2 C 0,9 km/h (0 Bft)
26.02.2005 00:00 -5,6 C 81 % 1014 hPa 0,0 l/m N -8,3 C -5,6 C 0,0 km/h (0 Bft)
26.02.2005 01:00 -6,9 C 81 % 1014 hPa 0,0 l/m N -9,5 C -6,9 C 0,0 km/h (0 Bft)
26.02.2005 02:00 -7,9 C 83 % 1013 hPa 0,0 l/m NW -10,2 C -8,2 C 2,6 km/h (1 Bft)
26.02.2005 03:00 -7,5 C 88 % 1013 hPa 0,0 l/m NW -9,2 C -7,7 C 3,1 km/h (1 Bft)
26.02.2005 04:00 -8,0 C 89 % 1012 hPa 0,0 l/m W -9,5 C -8,0 C 0,5 km/h (0 Bft)
26.02.2005 05:00 -7,9 C 89 % 1012 hPa 0,0 l/m W-NW -9,4 C -8,0 C 1,2 km/h (1 Bft)
26.02.2005 06:00 -8,2 C 89 % 1012 hPa 0,0 l/m N-NW -9,7 C -8,2 C 0,7 km/h (0 Bft)
26.02.2005 07:00 -8,9 C 89 % 1012 hPa 0,0 l/m NW -10,4 C -9,0 C 1,0 km/h (0 Bft)
26.02.2005 08:00 -7,9 C 90 % 1012 hPa 0,0 l/m NW -9,2 C -8,5 C 4,6 km/h (1 Bft)
26.02.2005 09:00 -6,1 C 87 % 1012 hPa 0,0 l/m NW -7,9 C -6,9 C 5,7 km/h (1 Bft)
26.02.2005 10:00 -3,5 C 68 % 1012 hPa 0,0 l/m N-NO -8,5 C -6,4 C 8,8 km/h (2 Bft)
26.02.2005 11:00 -2,2 C 56 % 1012 hPa 0,0 l/m NO -9,9 C -6,4 C 11,9 km/h (2 Bft)
26.02.2005 12:00 -1,2 C 54 % 1012 hPa 0,0 l/m N-NO -9,2 C -6,8 C 13,6 km/h (3 Bft)
26.02.2005 13:00 -0,9 C 52 % 1011 hPa 0,0 l/m NO -9,5 C -6,4 C 13,8 km/h (3 Bft)
26.02.2005 14:00 -1,5 C 54 % 1011 hPa 0,0 l/m N-NO -9,5 C -6,2 C 13,0 km/h (3 Bft)
26.02.2005 15:00 -1,5 C 53 % 1010 hPa 0,0 l/m N-NO -9,8 C -6,2 C 12,7 km/h (3 Bft)
26.02.2005 16:00 -2,0 C 55 % 1010 hPa 0,0 l/m N-NO -9,9 C -6,2 C 12,3 km/h (3 Bft)
26.02.2005 17:00 -2,7 C 57 % 1010 hPa 0,0 l/m O-NO -10,1 C -4,0 C 7,8 km/h (2 Bft)
26.02.2005 18:00 -4,4 C 60 % 1010 hPa 0,0 l/m O-NO -11,0 C -4,4 C 0,5 km/h (0 Bft)
26.02.2005 19:00 -5,9 C 64 % 1010 hPa 0,0 l/m N -11,6 C -5,9 C 0,0 km/h (0 Bft)
26.02.2005 20:00 -6,5 C 70 % 1010 hPa 0,0 l/m N -11,0 C -6,5 C 0,0 km/h (0 Bft)
26.02.2005 21:00 -6,4 C 76 % 1010 hPa 0,0 l/m N -9,9 C -6,4 C 0,0 km/h (0 Bft)
26.02.2005 22:00 -6,9 C 78 % 1010 hPa 0,0 l/m N -10,1 C -6,9 C 0,0 km/h (0 Bft)
26.02.2005 23:00 -7,0 C 80 % 1010 hPa 0,0 l/m S-SO -9,8 C -7,0 C 0,2 km/h (0 Bft)
27.02.2005 00:00 -6,8 C 82 % 1009 hPa 0,0 l/m N -9,4 C -6,8 C 0,0 km/h (0 Bft)
27.02.2005 01:00 -6,7 C 82 % 1009 hPa 0,0 l/m N -9,2 C -6,7 C 0,0 km/h (0 Bft)
27.02.2005 02:00 -6,7 C 83 % 1009 hPa 0,0 l/m N -9,1 C -6,7 C 0,0 km/h (0 Bft)
27.02.2005 03:00 -6,7 C 84 % 1008 hPa 0,0 l/m N -9,0 C -6,7 C 0,0 km/h (0 Bft)
27.02.2005 04:00 -6,7 C 86 % 1008 hPa 0,0 l/m N -8,6 C -6,7 C 0,0 km/h (0 Bft)
27.02.2005 05:00 -6,5 C 89 % 1008 hPa 0,0 l/m S -8,0 C -6,7 C 1,6 km/h (1 Bft)
27.02.2005 06:00 -6,3 C 91 % 1008 hPa 0,0 l/m S -7,5 C -6,7 C 4,9 km/h (1 Bft)
27.02.2005 07:00 -6,0 C 93 % 1008 hPa 0,0 l/m S -7,0 C -6,5 C 4,6 km/h (1 Bft)
27.02.2005 08:00 -5,4 C 93 % 1008 hPa 0,0 l/m N -6,3 C -5,4 C 0,0 km/h (0 Bft)
27.02.2005 09:00 -4,8 C 92 % 1008 hPa 0,0 l/m N-NO -5,8 C -6,3 C 5,8 km/h (2 Bft)
27.02.2005 10:00 -5,2 C 85 % 1009 hPa 0,0 l/m N -7,2 C -13,4 C 18,3 km/h (3 Bft)
27.02.2005 11:00 -4,9 C 79 % 1009 hPa 0,0 l/m N -8,0 C -14,8 C 20,7 km/h (4 Bft)
27.02.2005 12:00 -5,1 C 76 % 1010 hPa 0,0 l/m N -8,7 C -15,7 C 22,7 km/h (4 Bft)
27.02.2005 13:00 -5,3 C 78 % 1011 hPa 0,0 l/m N -8,5 C -16,0 C 22,4 km/h (4 Bft)
27.02.2005 14:00 -5,9 C 82 % 1011 hPa 0,0 l/m N -8,5 C -17,5 C 24,3 km/h (4 Bft)
27.02.2005 15:00 -6,4 C 82 % 1012 hPa 0,0 l/m N-NO -9,0 C -18,0 C 24,6 km/h (4 Bft)
27.02.2005 16:00 -6,7 C 84 % 1012 hPa 0,0 l/m N-NO -9,0 C -17,1 C 21,7 km/h (4 Bft)
27.02.2005 17:00 -7,1 C 84 % 1013 hPa 0,0 l/m N-NO -9,3 C -16,9 C 20,2 km/h (4 Bft)
27.02.2005 18:00 -7,4 C 88 % 1014 hPa 0,0 l/m N -9,0 C -16,1 C 18,2 km/h (3 Bft)
27.02.2005 19:00 -7,8 C 85 % 1015 hPa 0,0 l/m N -9,8 C -17,7 C 19,6 km/h (3 Bft)
27.02.2005 20:00 -8,2 C 77 % 1015 hPa 0,0 l/m N -11,6 C -17,9 C 18,7 km/h (3 Bft)
27.02.2005 21:00 -8,7 C 66 % 1016 hPa 0,0 l/m N -13,8 C -18,6 C 18,9 km/h (3 Bft)
27.02.2005 22:00 -9,0 C 67 % 1016 hPa 0,0 l/m N -14,0 C -18,9 C 18,9 km/h (3 Bft)
27.02.2005 23:00 -9,9 C 77 % 1017 hPa 0,0 l/m N-NO -13,2 C -19,3 C 17,8 km/h (3 Bft)
Min-Datum _ 24.02.05 26.02.05 22.02.05 - - 27.02.05 27.02.05 21.02.05
_ Min-Zeit 05:01 13:45 04:12 - - 22:13 23:17 00:00
Minimum _ -11,6 C 50 % 1002 hPa - - -14,4 C -23,5 C 0,0 km/h (0 Bft)
Max-Datum _ 23.02.05 21.02.05 27.02.05 21.02.05 - 21.02.05 23.02.05 27.02.05
_ Max-Zeit 14:10 07:35 22:58 00:00 - 16:55 13:38 12:51
Maximum _ 0,2 C 99 % 1017 hPa 0,0 l/m - -3,2 C 0,1 C 41,3 km/h
N (6 Bft)
Durchschnitt _ -4,7 C 82 % 1009 hPa #0,0 l/m N -7,5 C -6,8 C 6,3 km/h (2 Bft)

Durchschnitt Minimum Temp.-5,2 C
Durchschnitt Maximum Temp.-4,3 C